createdAt,value
2023-03-04T00:02:05.579Z,4.84
2023-03-04T00:04:38.028Z,5.00
2023-03-04T00:07:10.396Z,5.05
2023-03-04T00:09:42.977Z,4.83
2023-03-04T00:12:15.430Z,4.94
2023-03-04T00:14:48.080Z,4.89
2023-03-04T00:17:20.927Z,4.99
2023-03-04T00:19:53.315Z,4.92
2023-03-04T00:22:25.751Z,4.89
2023-03-04T00:24:58.092Z,4.91
2023-03-04T00:27:30.866Z,4.94
2023-03-04T00:30:03.471Z,4.92
2023-03-04T00:32:35.941Z,4.90
2023-03-04T00:35:10.110Z,4.85
2023-03-04T00:37:42.535Z,4.82
2023-03-04T00:40:16.300Z,4.82
2023-03-04T00:42:48.803Z,4.87
2023-03-04T00:45:21.484Z,4.94
2023-03-04T00:47:54.259Z,4.84
2023-03-04T00:50:26.884Z,4.85
2023-03-04T00:52:59.614Z,4.90
2023-03-04T00:55:32.333Z,4.97
2023-03-04T00:58:05.109Z,4.95
2023-03-04T01:00:37.573Z,4.95
2023-03-04T01:03:10.104Z,4.91
2023-03-04T01:05:42.595Z,4.92
2023-03-04T01:08:15.066Z,4.94
2023-03-04T01:10:48.609Z,5.09
2023-03-04T01:13:21.232Z,5.06
2023-03-04T01:15:56.055Z,4.94
2023-03-04T01:18:29.071Z,5.12
2023-03-04T01:21:01.481Z,5.12
2023-03-04T01:23:35.165Z,5.13
2023-03-04T01:26:07.876Z,5.02
2023-03-04T01:28:40.260Z,5.04
2023-03-04T01:31:12.658Z,5.03
2023-03-04T01:33:45.289Z,5.09
2023-03-04T01:36:18.151Z,5.07
2023-03-04T01:38:50.643Z,5.10
2023-03-04T01:41:26.972Z,4.99
2023-03-04T01:44:02.628Z,5.11
2023-03-04T01:46:35.487Z,4.75
2023-03-04T01:49:11.413Z,4.80
2023-03-04T01:51:49.622Z,4.70
2023-03-04T01:54:23.426Z,4.63
2023-03-04T01:57:02.152Z,4.66
2023-03-04T01:59:34.677Z,4.44
2023-03-04T02:02:07.057Z,4.59
2023-03-04T02:04:40.881Z,4.64
2023-03-04T02:07:13.424Z,4.53
2023-03-04T02:09:45.988Z,4.56
2023-03-04T02:12:18.792Z,4.67
2023-03-04T02:14:51.354Z,4.62
2023-03-04T02:17:28.617Z,4.59
2023-03-04T02:20:09.183Z,4.63
2023-03-04T02:22:48.194Z,4.62
2023-03-04T02:25:25.554Z,4.78
2023-03-04T02:27:58.146Z,5.01
2023-03-04T02:30:30.616Z,4.83
2023-03-04T02:33:03.019Z,4.57
2023-03-04T02:35:36.071Z,4.56
2023-03-04T02:38:08.932Z,4.72
2023-03-04T02:40:44.468Z,4.77
2023-03-04T02:43:17.309Z,4.84
2023-03-04T02:45:51.742Z,4.72
2023-03-04T02:48:25.346Z,4.88
2023-03-04T02:50:58.185Z,4.93
2023-03-04T02:53:30.584Z,4.90
2023-03-04T02:56:03.204Z,4.81
2023-03-04T02:58:38.703Z,4.78
2023-03-04T03:01:11.119Z,4.89
2023-03-04T03:03:43.678Z,4.77
2023-03-04T03:06:16.344Z,4.70
2023-03-04T03:08:48.807Z,4.86
2023-03-04T03:11:21.657Z,4.80
2023-03-04T03:13:54.012Z,4.82
2023-03-04T03:16:27.079Z,4.82
2023-03-04T03:18:59.824Z,4.84
2023-03-04T03:21:32.650Z,4.94
2023-03-04T03:24:05.188Z,4.92
2023-03-04T03:26:37.590Z,4.97
2023-03-04T03:29:10.040Z,4.97
2023-03-04T03:31:42.643Z,4.91
2023-03-04T03:34:15.340Z,4.81
2023-03-04T03:36:47.796Z,4.89
2023-03-04T03:39:20.745Z,4.96
2023-03-04T03:41:53.316Z,4.95
2023-03-04T03:44:25.751Z,5.11
2023-03-04T03:46:58.552Z,4.89
2023-03-04T03:49:30.965Z,4.94
2023-03-04T03:52:03.787Z,5.06
2023-03-04T03:54:36.369Z,5.00
2023-03-04T03:57:08.947Z,5.01
2023-03-04T03:59:41.285Z,4.96
2023-03-04T04:02:13.749Z,5.13
2023-03-04T04:04:46.268Z,5.14
2023-03-04T04:07:18.673Z,4.96
2023-03-04T04:09:51.119Z,5.08
2023-03-04T04:12:23.793Z,5.21
2023-03-04T04:14:56.272Z,5.18
2023-03-04T04:17:28.936Z,5.16
2023-03-04T04:20:02.660Z,5.17
2023-03-04T04:22:35.580Z,5.19
2023-03-04T04:25:10.791Z,5.11
2023-03-04T04:27:43.337Z,5.09
2023-03-04T04:30:17.829Z,5.08
2023-03-04T04:32:50.202Z,5.08
2023-03-04T04:35:22.725Z,5.09
2023-03-04T04:37:55.073Z,5.14
2023-03-04T04:40:27.589Z,5.17
2023-03-04T04:43:00.025Z,5.07
2023-03-04T04:45:32.502Z,5.04
2023-03-04T04:48:05.120Z,4.97
2023-03-04T04:50:37.646Z,4.99
2023-03-04T04:53:11.823Z,4.95
2023-03-04T04:55:44.531Z,5.01
2023-03-04T04:58:16.901Z,4.96
2023-03-04T05:00:49.503Z,4.98
2023-03-04T05:03:23.573Z,5.03
2023-03-04T05:05:56.119Z,5.08
2023-03-04T05:08:28.733Z,5.07
2023-03-04T05:11:01.493Z,5.01
2023-03-04T05:13:34.230Z,4.95
2023-03-04T05:16:07.902Z,5.03
2023-03-04T05:18:41.319Z,4.91
2023-03-04T05:21:13.845Z,5.01
2023-03-04T05:23:47.452Z,5.00
2023-03-04T05:26:20.831Z,5.12
2023-03-04T05:28:53.202Z,4.89
2023-03-04T05:31:25.697Z,5.07
2023-03-04T05:33:58.252Z,5.15
2023-03-04T05:36:30.618Z,5.06
2023-03-04T05:39:03.084Z,5.13
2023-03-04T05:41:35.501Z,5.20
2023-03-04T05:44:08.433Z,4.88
2023-03-04T05:46:40.944Z,4.96
2023-03-04T05:49:13.373Z,5.16
2023-03-04T05:51:45.916Z,5.09
2023-03-04T05:54:19.054Z,5.06
2023-03-04T05:56:51.556Z,5.17
2023-03-04T05:59:24.026Z,5.18
2023-03-04T06:01:56.367Z,4.94
2023-03-04T06:04:30.020Z,5.03
2023-03-04T06:07:02.431Z,5.11
2023-03-04T06:09:34.986Z,5.22
2023-03-04T06:12:08.168Z,5.30
2023-03-04T06:14:40.633Z,5.25
2023-03-04T06:17:13.361Z,5.18
2023-03-04T06:19:46.970Z,5.19
2023-03-04T06:22:19.536Z,5.22
2023-03-04T06:24:52.618Z,5.36
2023-03-04T06:27:25.051Z,5.28
2023-03-04T06:29:57.781Z,5.37
2023-03-04T06:32:30.621Z,5.31
2023-03-04T06:35:03.072Z,5.38
2023-03-04T06:37:35.559Z,5.47
2023-03-04T06:40:11.137Z,5.43
2023-03-04T06:42:44.129Z,5.39
2023-03-04T06:45:16.705Z,5.36
2023-03-04T06:47:49.049Z,5.41
2023-03-04T06:50:22.372Z,5.46
2023-03-04T06:52:57.420Z,5.55
2023-03-04T06:55:30.298Z,5.51
2023-03-04T06:58:03.008Z,5.54
2023-03-04T07:00:35.575Z,5.51
2023-03-04T07:03:08.011Z,5.51
2023-03-04T07:05:40.773Z,5.24
2023-03-04T07:08:13.134Z,5.46
2023-03-04T07:10:45.637Z,5.43
2023-03-04T07:13:17.949Z,5.28
2023-03-04T07:15:50.316Z,5.36
2023-03-04T07:18:22.779Z,5.46
2023-03-04T07:20:56.170Z,5.30
2023-03-04T07:23:28.777Z,5.42
2023-03-04T07:26:01.653Z,5.36
2023-03-04T07:28:34.034Z,5.56
2023-03-04T07:31:23.713Z,5.68
2023-03-04T07:33:59.929Z,5.67
2023-03-04T07:36:32.377Z,5.82
2023-03-04T07:39:05.791Z,5.82
2023-03-04T07:41:38.453Z,5.71
2023-03-04T07:44:13.349Z,5.76
2023-03-04T07:46:45.868Z,5.77
2023-03-04T07:49:18.432Z,5.81
2023-03-04T07:51:50.920Z,5.63
2023-03-04T07:54:23.304Z,5.68
2023-03-04T07:56:56.031Z,5.65
2023-03-04T07:59:28.581Z,5.67
2023-03-04T08:02:01.057Z,5.62
2023-03-04T08:04:33.573Z,5.72
2023-03-04T08:07:06.025Z,5.84
2023-03-04T08:09:38.339Z,5.76
2023-03-04T08:12:11.196Z,5.65
2023-03-04T08:14:43.525Z,5.75
2023-03-04T08:17:15.959Z,5.86
2023-03-04T08:19:48.650Z,5.90
2023-03-04T08:22:21.079Z,5.96
2023-03-04T08:24:53.532Z,5.90
2023-03-04T08:27:26.566Z,5.74
2023-03-04T08:29:58.984Z,5.69
2023-03-04T08:32:31.451Z,5.83
2023-03-04T08:35:04.155Z,5.76
2023-03-04T08:37:36.763Z,5.78
2023-03-04T08:40:11.266Z,5.96
2023-03-04T08:42:43.825Z,5.97
2023-03-04T08:45:16.521Z,5.97
2023-03-04T08:47:49.099Z,5.98
2023-03-04T08:50:22.528Z,6.00
2023-03-04T08:52:55.982Z,6.16
2023-03-04T08:55:28.416Z,6.02
2023-03-04T08:58:01.487Z,6.06
2023-03-04T09:00:34.665Z,6.11
2023-03-04T09:03:07.477Z,6.04
2023-03-04T09:05:40.285Z,6.10
2023-03-04T09:08:13.136Z,5.99
2023-03-04T09:10:45.956Z,6.13
2023-03-04T09:13:18.501Z,6.04
2023-03-04T09:15:52.708Z,6.10
2023-03-04T09:18:26.801Z,6.28
2023-03-04T09:20:59.684Z,6.07
2023-03-04T09:23:32.138Z,6.15
2023-03-04T09:26:14.124Z,6.32
2023-03-04T09:28:46.921Z,6.29
2023-03-04T09:31:20.846Z,6.22
2023-03-04T09:33:54.561Z,6.30
2023-03-04T09:36:28.359Z,6.18
2023-03-04T09:39:04.487Z,6.12
2023-03-04T09:41:41.815Z,6.15
2023-03-04T09:44:22.842Z,6.40
2023-03-04T09:46:58.360Z,6.28
2023-03-04T09:49:32.079Z,6.33
2023-03-04T09:52:16.077Z,6.33
2023-03-04T09:55:14.200Z,6.32
2023-03-04T09:57:54.691Z,6.35
2023-03-04T10:00:34.123Z,6.40
2023-03-04T10:03:16.579Z,6.54
2023-03-04T10:05:55.630Z,6.48
2023-03-04T10:08:43.206Z,6.45
2023-03-04T10:11:19.341Z,6.57
2023-03-04T10:14:01.918Z,6.48
2023-03-04T10:16:41.441Z,6.60
2023-03-04T10:19:40.691Z,6.64
2023-03-04T10:22:22.179Z,6.76
2023-03-04T10:24:57.099Z,6.80
2023-03-04T10:27:30.370Z,6.82
2023-03-04T10:30:03.611Z,6.93
2023-03-04T10:32:36.574Z,7.02
2023-03-04T10:35:15.326Z,7.06
2023-03-04T10:37:50.933Z,7.14
2023-03-04T10:40:26.754Z,7.27
2023-03-04T10:43:00.986Z,7.29
2023-03-04T10:45:36.825Z,7.28
2023-03-04T10:48:18.903Z,7.22
2023-03-04T10:50:51.474Z,7.26
2023-03-04T10:53:33.965Z,7.26
2023-03-04T10:56:26.881Z,7.32
2023-03-04T10:59:32.909Z,7.38
2023-03-04T11:02:17.820Z,7.51
2023-03-04T11:04:55.935Z,7.56
2023-03-04T11:07:29.105Z,7.57
2023-03-04T11:10:11.114Z,7.57
2023-03-04T11:12:43.661Z,7.59
2023-03-04T11:15:27.596Z,7.55
2023-03-04T11:18:04.007Z,7.44
2023-03-04T11:20:40.209Z,7.47
2023-03-04T11:23:18.527Z,7.53
2023-03-04T11:25:56.470Z,7.57
2023-03-04T11:28:38.091Z,7.47
2023-03-04T11:31:15.433Z,7.56
2023-03-04T11:33:52.143Z,7.59
2023-03-04T11:36:35.718Z,7.54
2023-03-04T11:39:20.696Z,7.56
2023-03-04T11:41:59.887Z,7.39
2023-03-04T11:44:33.142Z,7.50
2023-03-04T11:47:22.995Z,7.52
2023-03-04T11:50:10.612Z,7.46
2023-03-04T11:53:01.771Z,7.42
2023-03-04T11:55:41.420Z,7.51
2023-03-04T11:58:54.198Z,7.44
2023-03-04T12:01:34.529Z,7.45
2023-03-04T12:04:29.451Z,7.35
2023-03-04T12:07:17.570Z,7.58
2023-03-04T12:10:03.711Z,7.68
2023-03-04T12:12:53.539Z,7.58
2023-03-04T12:15:31.912Z,7.61
2023-03-04T12:18:24.389Z,7.71
2023-03-04T12:21:18.269Z,7.75
2023-03-04T12:24:18.264Z,7.70
2023-03-04T12:26:56.321Z,7.75
2023-03-04T12:29:34.355Z,7.81
2023-03-04T12:32:18.728Z,7.78
2023-03-04T12:35:20.797Z,7.89
2023-03-04T12:38:03.496Z,7.98
2023-03-04T12:40:46.706Z,8.03
2023-03-04T12:43:35.639Z,8.00
2023-03-04T12:46:23.225Z,7.98
2023-03-04T12:49:10.113Z,7.95
2023-03-04T12:51:51.434Z,7.92
2023-03-04T12:54:32.417Z,7.93
2023-03-04T12:57:11.056Z,7.99
2023-03-04T12:59:53.423Z,7.96
2023-03-04T13:02:41.084Z,7.77
2023-03-04T13:05:46.029Z,7.75
2023-03-04T13:08:38.155Z,7.77
2023-03-04T13:11:44.101Z,7.58
2023-03-04T13:14:30.976Z,7.70
2023-03-04T13:17:20.291Z,7.55
2023-03-04T13:19:58.280Z,7.59
2023-03-04T13:22:39.347Z,7.71
2023-03-04T13:25:45.283Z,7.65
2023-03-04T13:28:36.064Z,7.65
2023-03-04T13:31:20.810Z,7.51
2023-03-04T13:34:06.835Z,7.43
2023-03-04T13:36:59.575Z,7.24
2023-03-04T13:39:34.919Z,7.17
2023-03-04T13:42:50.022Z,7.15
2023-03-04T13:45:39.273Z,7.10
2023-03-04T13:48:28.246Z,7.10
2023-03-04T13:51:01.118Z,7.07
2023-03-04T13:53:45.375Z,7.01
2023-03-04T13:56:32.841Z,7.08
2023-03-04T13:59:23.718Z,7.13
2023-03-04T14:02:00.116Z,7.09
2023-03-04T14:04:36.171Z,7.15
2023-03-04T14:07:22.414Z,7.13
2023-03-04T14:10:00.974Z,7.16
2023-03-04T14:12:35.872Z,7.08
2023-03-04T14:15:21.418Z,7.13
2023-03-04T14:17:56.373Z,7.11
2023-03-04T14:20:31.589Z,7.17
2023-03-04T14:23:05.808Z,7.28
2023-03-04T14:25:38.682Z,7.43
2023-03-04T14:28:16.740Z,7.40
2023-03-04T14:30:55.452Z,7.53
2023-03-04T14:33:30.077Z,7.44
2023-03-04T14:36:04.389Z,7.36
2023-03-04T14:38:41.729Z,7.48
2023-03-04T14:41:20.916Z,7.51
2023-03-04T14:44:00.222Z,7.46
2023-03-04T14:46:40.320Z,7.43
2023-03-04T14:49:16.904Z,7.38
2023-03-04T14:51:51.076Z,7.25
2023-03-04T14:54:35.862Z,7.23
2023-03-04T14:57:34.058Z,7.25
2023-03-04T15:00:27.095Z,7.30
2023-03-04T15:03:01.434Z,7.22
2023-03-04T15:05:35.634Z,7.00
2023-03-04T15:08:21.411Z,7.15
2023-03-04T15:11:00.141Z,7.18
2023-03-04T15:13:51.049Z,7.11
2023-03-04T15:16:25.647Z,7.04
2023-03-04T15:18:57.855Z,7.03
2023-03-04T15:21:40.289Z,7.05
2023-03-04T15:24:15.426Z,7.05
2023-03-04T15:26:50.310Z,6.98
2023-03-04T15:29:23.536Z,7.03
2023-03-04T15:31:56.496Z,7.03
2023-03-04T15:34:30.008Z,6.78
2023-03-04T15:37:03.028Z,6.80
2023-03-04T15:39:35.583Z,6.85
2023-03-04T15:42:13.682Z,6.75
2023-03-04T15:44:46.636Z,6.80
2023-03-04T15:47:19.250Z,6.75
2023-03-04T15:49:52.663Z,6.75
2023-03-04T15:52:25.937Z,6.67
2023-03-04T15:54:58.359Z,6.65
2023-03-04T15:57:31.850Z,6.57
2023-03-04T16:00:04.732Z,6.67
2023-03-04T16:02:44.213Z,6.75
2023-03-04T16:05:16.840Z,6.72
2023-03-04T16:07:51.498Z,6.69
2023-03-04T16:10:26.891Z,6.61
2023-03-04T16:12:59.883Z,6.54
2023-03-04T16:15:33.601Z,6.52
2023-03-04T16:18:08.340Z,6.47
2023-03-04T16:20:39.650Z,6.44
2023-03-04T16:23:16.322Z,6.41
2023-03-04T16:25:51.261Z,6.34
2023-03-04T16:28:21.966Z,6.40
2023-03-04T16:30:54.499Z,6.43
2023-03-04T16:33:27.040Z,6.31
2023-03-04T16:36:00.015Z,6.19
2023-03-04T16:38:34.696Z,6.18
2023-03-04T16:41:09.526Z,6.11
2023-03-04T16:43:43.299Z,6.15
2023-03-04T16:46:16.906Z,6.29
2023-03-04T16:48:49.834Z,6.16
2023-03-04T16:51:24.696Z,6.07
2023-03-04T16:54:00.294Z,6.13
2023-03-04T16:56:33.141Z,6.11
2023-03-04T16:59:05.697Z,6.14
2023-03-04T17:01:38.792Z,6.11
2023-03-04T17:04:11.314Z,6.00
2023-03-04T17:06:43.959Z,5.90
2023-03-04T17:09:16.435Z,6.00
2023-03-04T17:11:48.935Z,6.03
2023-03-04T17:14:21.822Z,6.08
2023-03-04T17:16:54.772Z,5.97
2023-03-04T17:19:27.507Z,5.94
2023-03-04T17:22:00.784Z,5.90
2023-03-04T17:24:33.314Z,5.91
2023-03-04T17:27:05.859Z,5.86
2023-03-04T17:29:38.855Z,5.87
2023-03-04T17:32:11.572Z,5.78
2023-03-04T17:34:44.232Z,5.57
2023-03-04T17:37:17.547Z,5.68
2023-03-04T17:39:49.961Z,5.64
2023-03-04T17:42:22.474Z,5.60
2023-03-04T17:44:55.027Z,5.61
2023-03-04T17:47:28.142Z,5.49
2023-03-04T17:50:00.633Z,5.42
2023-03-04T17:52:33.694Z,5.51
2023-03-04T17:55:06.843Z,5.50
2023-03-04T17:57:40.171Z,5.44
2023-03-04T18:00:15.187Z,5.37
2023-03-04T18:02:47.748Z,5.29
2023-03-04T18:05:20.375Z,5.31
2023-03-04T18:07:52.875Z,5.24
2023-03-04T18:10:25.236Z,5.27
2023-03-04T18:12:57.821Z,5.26
2023-03-04T18:15:31.139Z,5.25
2023-03-04T18:18:04.137Z,5.16
2023-03-04T18:20:36.717Z,5.14
2023-03-04T18:23:09.252Z,5.07
2023-03-04T18:25:41.866Z,4.97
2023-03-04T18:28:14.320Z,4.97
2023-03-04T18:30:47.313Z,4.99
2023-03-04T18:33:20.166Z,5.02
2023-03-04T18:35:58.326Z,4.95
2023-03-04T18:38:31.481Z,4.95
2023-03-04T18:41:06.377Z,4.91
2023-03-04T18:43:39.587Z,4.91
2023-03-04T18:46:23.860Z,4.98
2023-03-04T18:49:01.897Z,5.03
2023-03-04T18:51:34.660Z,5.05
2023-03-04T18:54:07.607Z,5.06
2023-03-04T18:56:44.996Z,5.05
2023-03-04T18:59:21.474Z,5.04
2023-03-04T19:01:55.774Z,4.93
2023-03-04T19:04:30.914Z,4.97
2023-03-04T19:07:03.337Z,4.94
2023-03-04T19:09:36.687Z,4.93
2023-03-04T19:12:09.682Z,4.81
2023-03-04T19:14:42.575Z,4.87
2023-03-04T19:17:15.577Z,4.90
2023-03-04T19:19:48.400Z,4.93
2023-03-04T19:22:20.836Z,4.91
2023-03-04T19:24:53.470Z,4.85
2023-03-04T19:27:26.166Z,4.85
2023-03-04T19:29:58.746Z,4.84
2023-03-04T19:32:31.366Z,4.74
2023-03-04T19:35:04.065Z,4.78
2023-03-04T19:37:36.573Z,4.81
2023-03-04T19:40:11.438Z,4.81
2023-03-04T19:42:44.000Z,4.73
2023-03-04T19:45:17.094Z,4.70
2023-03-04T19:47:49.653Z,4.69
2023-03-04T19:50:22.796Z,4.72
2023-03-04T19:52:55.210Z,4.58
2023-03-04T19:55:27.869Z,4.57
2023-03-04T19:58:00.386Z,4.51
2023-03-04T20:00:32.919Z,4.48
2023-03-04T20:03:07.824Z,4.40
2023-03-04T20:05:40.669Z,4.38
2023-03-04T20:08:13.167Z,4.39
2023-03-04T20:10:45.783Z,4.32
2023-03-04T20:13:18.251Z,4.39
2023-03-04T20:15:50.674Z,4.34
2023-03-04T20:18:23.392Z,4.28
2023-03-04T20:20:58.789Z,4.23
2023-03-04T20:23:31.274Z,4.23
2023-03-04T20:26:03.730Z,4.28
2023-03-04T20:28:36.437Z,4.35
2023-03-04T20:31:20.093Z,4.31
2023-03-04T20:33:53.665Z,4.27
2023-03-04T20:36:27.908Z,4.21
2023-03-04T20:39:03.505Z,4.21
2023-03-04T20:41:38.105Z,4.19
2023-03-04T20:44:10.743Z,4.19
2023-03-04T20:46:46.113Z,4.16
2023-03-04T20:49:23.393Z,4.14
2023-03-04T20:52:03.189Z,4.19
2023-03-04T20:54:38.772Z,4.20
2023-03-04T20:57:11.708Z,4.13
2023-03-04T20:59:44.727Z,4.17
2023-03-04T21:02:19.841Z,4.19
2023-03-04T21:04:52.765Z,4.23
2023-03-04T21:07:26.426Z,4.16
2023-03-04T21:09:59.041Z,4.11
2023-03-04T21:12:31.446Z,4.20
2023-03-04T21:15:03.979Z,4.05
2023-03-04T21:17:36.452Z,4.00
2023-03-04T21:20:19.213Z,3.95
2023-03-04T21:22:52.055Z,3.94
2023-03-04T21:25:24.633Z,4.03
2023-03-04T21:27:57.106Z,4.06
2023-03-04T21:30:29.991Z,3.96
2023-03-04T21:33:04.437Z,3.97
2023-03-04T21:35:38.044Z,3.96
2023-03-04T21:38:10.536Z,3.93
2023-03-04T21:40:43.194Z,3.99
2023-03-04T21:43:22.407Z,3.97
2023-03-04T21:45:59.660Z,3.92
2023-03-04T21:48:32.180Z,3.92
2023-03-04T21:51:10.128Z,3.90
2023-03-04T21:53:43.703Z,3.94
2023-03-04T21:56:16.282Z,3.92
2023-03-04T21:58:48.710Z,3.90
2023-03-04T22:01:22.662Z,3.80
2023-03-04T22:03:55.285Z,3.76
2023-03-04T22:06:27.858Z,3.74
2023-03-04T22:09:01.517Z,3.85
2023-03-04T22:11:33.962Z,3.78
2023-03-04T22:14:06.404Z,3.65
2023-03-04T22:16:54.054Z,3.70
2023-03-04T22:19:31.615Z,3.73
2023-03-04T22:22:04.629Z,3.77
2023-03-04T22:24:37.667Z,3.78
2023-03-04T22:27:10.505Z,3.73
2023-03-04T22:29:42.922Z,3.66
2023-03-04T22:32:15.738Z,3.60
2023-03-04T22:34:48.149Z,3.64
2023-03-04T22:37:21.114Z,3.48
2023-03-04T22:39:53.432Z,3.38
2023-03-04T22:42:25.826Z,3.36
2023-03-04T22:44:59.649Z,3.55
2023-03-04T22:47:32.059Z,3.64
2023-03-04T22:50:04.649Z,3.75
2023-03-04T22:52:37.343Z,3.77
2023-03-04T22:55:11.548Z,3.73
2023-03-04T22:57:44.233Z,3.66
2023-03-04T23:00:23.102Z,3.55
2023-03-04T23:02:55.768Z,3.49
2023-03-04T23:05:28.483Z,3.52
2023-03-04T23:08:00.928Z,3.52
2023-03-04T23:10:33.770Z,3.54
2023-03-04T23:13:06.400Z,3.61
2023-03-04T23:15:38.816Z,3.59
2023-03-04T23:18:11.274Z,3.45
2023-03-04T23:20:44.254Z,3.54
2023-03-04T23:23:16.757Z,3.64
2023-03-04T23:25:52.148Z,3.70
2023-03-04T23:28:24.574Z,3.76
2023-03-04T23:30:57.054Z,3.70
2023-03-04T23:33:29.491Z,3.68
2023-03-04T23:36:01.909Z,3.62
2023-03-04T23:38:34.259Z,3.61
2023-03-04T23:41:07.166Z,3.44
2023-03-04T23:43:39.649Z,3.64
2023-03-04T23:46:12.855Z,3.58
2023-03-04T23:48:46.949Z,3.57
2023-03-04T23:51:21.601Z,3.71
2023-03-04T23:53:54.414Z,3.64
2023-03-04T23:56:29.340Z,3.54
2023-03-04T23:59:00.456Z,3.63
